Sao Pedro do Piaui, Brazil
Current Conditions -  °F | °C
As of 5:00 PM on Thursday 23 Oct 2014 (Local Time) from SBTE Reporting Station
Clear Clear  
Wind Chill: 97°   Ceiling: Unl
Heat Index: 98°   Visibility: 6mi
Dew Point: 63°   Wind: 5mph
Humidity: 32%   Direction: 250°WSW
Pressure: 29.77"   Gusts: NA
Location:  5.93°S, 42.72°W
Report Text: SBTE 232000Z 25004KT CAVOK 36/17 Q1008
Loading
Personal Weather Stations






























Interactive Weather Map New forecast layout! Learn more

10-Day Weather Forecast

Advertisements
Track Severe Weather on mobile